Kypros Bravery — 5BET4 — position and weather

sailwx.info

Track history (hours):
 
Tides and Currents Weather Stations Pressure Air Temp Water Temp Dewpoint Dewpoint Depression Visibility Wind Speed Wind Dir Waves Ship Positions

Kypros Bravery

Last reported at 2017-Dec-30 05:59 UTC. Time now 2018-Jan-20 17:11 UTC.
Position N 35°58' W 005°36'.
Warning: this ship's position is 21 days out of date.

Length 225 m; draft 8.7 m.

Type: Cargo ship. MMSI: 212498000.

Date/timePositionNaut miles runAvg speedWind from/ knotsBaromVisibWave heightAir tempDewpointWater temp
2017-Dec-30 05:59N 35°58' W 005°36'4 9.0
2017-Dec-30 05:30N 35°59' W 005°31'4 8.1
2017-Dec-30 05:00N 36°00' W 005°26'4 7.8
2017-Dec-30 04:30N 36°01' W 005°21'4 8.7
2017-Dec-30 04:01N 36°02' W 005°16'5 9.4
2017-Dec-30 03:30N 36°03' W 005°10'  
2017-Dec-26 02:27N 36°24' E 013°50'611.7
2017-Dec-26 01:57N 36°21' E 013°56'511.8
2017-Dec-26 01:30N 36°19' E 014°02'611.5
2017-Dec-26 01:00N 36°16' E 014°08'611.4
2017-Dec-26 00:30N 36°14' E 014°15'611.7
2017-Dec-26 00:00N 36°11' E 014°21'611.2
2017-Dec-25 23:30N 36°08' E 014°27'611.7
2017-Dec-25 23:00N 36°05' E 014°33'611.2
2017-Dec-25 22:30N 36°01' E 014°38'611.1
2017-Dec-25 22:00N 35°58' E 014°44'510.7
2017-Dec-25 21:30N 35°54' E 014°48'1 2.5
2017-Dec-25 20:58N 35°53' E 014°48'0 0.1
2017-Dec-25 20:28N 35°53' E 014°48'0 0.0
2017-Dec-25 19:52N 35°53' E 014°48'0 0.0
2017-Dec-25 19:28N 35°53' E 014°48'0 0.0
2017-Dec-25 18:46N 35°53' E 014°48'0 0.1
2017-Dec-25 18:22N 35°53' E 014°48'0 0.1
2017-Dec-25 17:58N 35°53' E 014°48'0 0.0
2017-Dec-25 17:25N 35°53' E 014°48'0 0.0
2017-Dec-25 16:58N 35°53' E 014°48'0 0.0
2017-Dec-25 16:28N 35°53' E 014°48'0 0.0
2017-Dec-25 15:58N 35°53' E 014°48'0 0.0
2017-Dec-25 15:28N 35°53' E 014°48'0 0.1
2017-Dec-25 14:49N 35°53' E 014°48'0 0.0
2017-Dec-25 14:28N 35°53' E 014°48'0 0.1
2017-Dec-25 13:52N 35°53' E 014°48'0 0.1
2017-Dec-25 13:16N 35°53' E 014°48'0 0.0
2017-Dec-25 12:58N 35°53' E 014°48'0 0.1
2017-Dec-25 12:28N 35°53' E 014°48'0 0.1
2017-Dec-25 11:58N 35°53' E 014°48'0 0.0
2017-Dec-25 11:28N 35°53' E 014°48'0 0.1
2017-Dec-25 10:58N 35°53' E 014°48'0 0.4
2017-Dec-25 10:30N 35°53' E 014°48'2 4.4
2017-Dec-25 10:00N 35°50' E 014°48'5 9.9
2017-Dec-25 09:30N 35°46' E 014°47'2 2.5
2017-Dec-25 08:47N 35°44' E 014°47'1 3.6
2017-Dec-25 08:29N 35°44' E 014°46'2 3.1
2017-Dec-25 07:58N 35°46' E 014°45'1 1.0
2017-Dec-25 07:25N 35°45' E 014°45'1 0.9
2017-Dec-25 06:52N 35°45' E 014°45'0 0.4
2017-Dec-25 06:19N 35°44' E 014°46'0 0.5
2017-Dec-25 05:52N 35°45' E 014°46'1 2.3
2017-Dec-25 05:30N 35°45' E 014°45'2 2.8
2017-Dec-25 04:58N 35°46' E 014°43'0 0.8
2017-Dec-25 04:30N 35°45' E 014°43'0 0.8
2017-Dec-25 04:01N 35°45' E 014°43'1 0.8
2017-Dec-25 03:19N 35°44' E 014°44'0 0.9
2017-Dec-25 02:58N 35°44' E 014°44'0 1.1
2017-Dec-25 02:30N 35°44' E 014°44'0 0.8
2017-Dec-25 01:58N 35°44' E 014°44'0 0.3
2017-Dec-25 01:22N 35°44' E 014°44'0 0.6
2017-Dec-25 01:00N 35°44' E 014°44'0 0.7
2017-Dec-25 00:28N 35°44' E 014°44'0 0.6
2017-Dec-24 23:52N 35°44' E 014°45'0 0.6
2017-Dec-24 23:30N 35°44' E 014°45'0 0.7
2017-Dec-24 22:52N 35°44' E 014°45'0 0.6
2017-Dec-24 22:12N 35°44' E 014°45'0 0.7
2017-Dec-24 22:00N 35°45' E 014°46'0 0.6
2017-Dec-24 21:24N 35°45' E 014°46'0 0.5
2017-Dec-24 20:36N 35°45' E 014°47'0 0.4
2017-Dec-24 20:18N 35°45' E 014°47'0 0.6
2017-Dec-24 20:01N 35°45' E 014°47'0 0.5
2017-Dec-24 19:30N 35°44' E 014°47'0 0.6
2017-Dec-24 18:58N 35°44' E 014°48'1 0.6
2017-Dec-24 17:57N 35°44' E 014°48'0 0.6
2017-Dec-24 17:27N 35°44' E 014°49'0 0.6
2017-Dec-24 17:00N 35°44' E 014°49'1 0.5
2017-Dec-24 15:43N 35°45' E 014°50'0 0.4
2017-Dec-24 15:27N 35°45' E 014°50'1 0.4
2017-Dec-24 13:30N 35°44' E 014°51'1 0.6
2017-Dec-24 12:20N 35°44' E 014°50'3 8.5
2017-Dec-24 12:00N 35°45' E 014°47'510.8
2017-Dec-24 11:30N 35°48' E 014°41'2 4.3
2017-Dec-24 10:58N 35°49' E 014°39'4 9.2
2017-Dec-24 10:30N 35°53' E 014°42'611.3
2017-Dec-24 10:00N 35°59' E 014°44'103 5.7
2017-Dec-23 15:57N 37°20' E 016°02'911.4
2017-Dec-23 15:07N 37°27' E 016°09'211.2
2017-Dec-23 14:57N 37°29' E 016°11'511.2
2017-Dec-23 14:30N 37°33' E 016°15'427 9.2
2017-Dec-21 15:59N 44°16' E 013°11'612.2
2017-Dec-21 15:30N 44°22' E 013°08'612.2
2017-Dec-21 15:00N 44°27' E 013°06'612.2
2017-Dec-21 14:30N 44°33' E 013°03'612.1
2017-Dec-21 14:00N 44°39' E 013°01'612.2
2017-Dec-21 13:30N 44°45' E 012°58'612.1
2017-Dec-21 13:00N 44°50' E 012°54'612.4
2017-Dec-21 12:30N 44°56' E 012°50'612.5
2017-Dec-21 12:00N 45°01' E 012°46'612.4
2017-Dec-21 11:30N 45°07' E 012°42'612.4
2017-Dec-21 11:00N 45°10' E 012°34'510.3
2017-Dec-21 10:30N 45°14' E 012°31'612.3
2017-Dec-21 10:00N 45°18' E 012°24'510.3
2017-Dec-21 09:30N 45°21' E 012°17'4 7.7
2017-Dec-21 09:00N 45°24' E 012°16'2 4.0
2017-Dec-21 08:30N 45°26' E 012°15'0 0.3
2017-Dec-21 08:00N 45°26' E 012°15'0 0.0
2017-Dec-21 07:30N 45°26' E 012°15'0 0.0
2017-Dec-21 07:00N 45°26' E 012°15'0 0.0
2017-Dec-21 06:30N 45°26' E 012°15'0 0.0
2017-Dec-21 06:00N 45°26' E 012°15'0 0.0
2017-Dec-21 05:30N 45°26' E 012°15'0 0.0
2017-Dec-21 05:00N 45°26' E 012°15'0 0.0
2017-Dec-21 04:30N 45°26' E 012°15'0 0.0
2017-Dec-21 04:00N 45°26' E 012°15'0 0.0
2017-Dec-21 03:30N 45°26' E 012°15'0 0.0
2017-Dec-21 02:57N 45°26' E 012°15'0 0.0
2017-Dec-21 02:30N 45°26' E 012°15'0 0.0
2017-Dec-21 02:00N 45°26' E 012°15'0 0.0
2017-Dec-21 01:30N 45°26' E 012°15'0 0.0
2017-Dec-21 01:00N 45°26' E 012°15'0 0.0
2017-Dec-21 00:30N 45°26' E 012°15'0 0.0
2017-Dec-21 00:00N 45°26' E 012°15'0 0.0
2017-Dec-20 23:30N 45°26' E 012°15'0 0.0
2017-Dec-20 23:00N 45°26' E 012°15'0 0.0
2017-Dec-20 22:30N 45°26' E 012°15'0 0.0
2017-Dec-20 22:00N 45°26' E 012°15'0 0.0
2017-Dec-20 21:30N 45°26' E 012°15'0 0.0
2017-Dec-20 21:00N 45°26' E 012°15'0 0.0
2017-Dec-20 20:30N 45°26' E 012°15'0 0.0
2017-Dec-20 20:00N 45°26' E 012°15'0 0.0
2017-Dec-20 19:30N 45°26' E 012°15'0 0.0
2017-Dec-20 19:00N 45°26' E 012°15'0 0.0
2017-Dec-20 18:30N 45°26' E 012°15'0 0.0
2017-Dec-20 18:01N 45°26' E 012°15'0 0.0
2017-Dec-20 17:27N 45°26' E 012°15'0 0.0
2017-Dec-20 17:00N 45°26' E 012°15'0 0.0
2017-Dec-20 16:30N 45°26' E 012°15'0 0.0
2017-Dec-20 16:00N 45°26' E 012°15'0 0.0
2017-Dec-20 15:30N 45°26' E 012°15'0 0.0
2017-Dec-20 15:00N 45°26' E 012°15'0 0.0
2017-Dec-20 14:30N 45°26' E 012°15'0 0.0
2017-Dec-20 14:00N 45°26' E 012°15'0 0.0
2017-Dec-20 13:30N 45°26' E 012°15'0 0.0
2017-Dec-20 13:00N 45°26' E 012°15'0 0.0
2017-Dec-20 12:30N 45°26' E 012°15'1 1.0
2017-Dec-20 12:00N 45°26' E 012°16'1 1.0
2017-Dec-20 11:30N 45°26' E 012°16'0 0.9
2017-Dec-20 11:00N 45°26' E 012°15'0 0.5
2017-Dec-20 10:30N 45°26' E 012°15'0 0.0
2017-Dec-20 10:00N 45°26' E 012°15'0 0.0
2017-Dec-20 09:30N 45°26' E 012°15'0 0.0
2017-Dec-20 09:00N 45°26' E 012°15'0 0.0
2017-Dec-20 08:30N 45°26' E 012°15'0 0.0
2017-Dec-20 08:00N 45°26' E 012°15'0 0.0
2017-Dec-20 07:30N 45°26' E 012°15'0 0.0
2017-Dec-20 07:00N 45°26' E 012°15'0 0.0
2017-Dec-20 06:30N 45°26' E 012°15'0 0.0
2017-Dec-20 06:00N 45°26' E 012°15'  
Track history (hours):
 
Tides and Currents Weather Stations Pressure Air Temp Water Temp Dewpoint Dewpoint Depression Visibility Wind Speed Wind Dir Waves Ship Positions

Kypros Bravery

Last reported at 2017-Dec-30 05:59 UTC. Time now 2018-Jan-20 17:11 UTC.
Position N 35°58' W 005°36'.
Warning: this ship's position is 21 days out of date.

Length 225 m; draft 8.7 m.

Type: Cargo ship. MMSI: 212498000.

Date/timePositionNaut miles runAvg speedWind from/ knotsBaromVisibWave heightAir tempDewpointWater temp
2017-Dec-30 05:59N 35°58' W 005°36'4 9.0
2017-Dec-30 05:30N 35°59' W 005°31'4 8.1
2017-Dec-30 05:00N 36°00' W 005°26'4 7.8
2017-Dec-30 04:30N 36°01' W 005°21'4 8.7
2017-Dec-30 04:01N 36°02' W 005°16'5 9.4
2017-Dec-30 03:30N 36°03' W 005°10'  
2017-Dec-26 02:27N 36°24' E 013°50'611.7
2017-Dec-26 01:57N 36°21' E 013°56'511.8
2017-Dec-26 01:30N 36°19' E 014°02'611.5
2017-Dec-26 01:00N 36°16' E 014°08'611.4
2017-Dec-26 00:30N 36°14' E 014°15'611.7
2017-Dec-26 00:00N 36°11' E 014°21'611.2
2017-Dec-25 23:30N 36°08' E 014°27'611.7
2017-Dec-25 23:00N 36°05' E 014°33'611.2
2017-Dec-25 22:30N 36°01' E 014°38'611.1
2017-Dec-25 22:00N 35°58' E 014°44'510.7
2017-Dec-25 21:30N 35°54' E 014°48'1 2.5
2017-Dec-25 20:58N 35°53' E 014°48'0 0.1
2017-Dec-25 20:28N 35°53' E 014°48'0 0.0
2017-Dec-25 19:52N 35°53' E 014°48'0 0.0
2017-Dec-25 19:28N 35°53' E 014°48'0 0.0
2017-Dec-25 18:46N 35°53' E 014°48'0 0.1
2017-Dec-25 18:22N 35°53' E 014°48'0 0.1
2017-Dec-25 17:58N 35°53' E 014°48'0 0.0
2017-Dec-25 17:25N 35°53' E 014°48'0 0.0
2017-Dec-25 16:58N 35°53' E 014°48'0 0.0
2017-Dec-25 16:28N 35°53' E 014°48'0 0.0
2017-Dec-25 15:58N 35°53' E 014°48'0 0.0
2017-Dec-25 15:28N 35°53' E 014°48'0 0.1
2017-Dec-25 14:49N 35°53' E 014°48'0 0.0
2017-Dec-25 14:28N 35°53' E 014°48'0 0.1
2017-Dec-25 13:52N 35°53' E 014°48'0 0.1
2017-Dec-25 13:16N 35°53' E 014°48'0 0.0
2017-Dec-25 12:58N 35°53' E 014°48'0 0.1
2017-Dec-25 12:28N 35°53' E 014°48'0 0.1
2017-Dec-25 11:58N 35°53' E 014°48'0 0.0
2017-Dec-25 11:28N 35°53' E 014°48'0 0.1
2017-Dec-25 10:58N 35°53' E 014°48'0 0.4
2017-Dec-25 10:30N 35°53' E 014°48'2 4.4
2017-Dec-25 10:00N 35°50' E 014°48'5 9.9
2017-Dec-25 09:30N 35°46' E 014°47'2 2.5
2017-Dec-25 08:47N 35°44' E 014°47'1 3.6
2017-Dec-25 08:29N 35°44' E 014°46'2 3.1
2017-Dec-25 07:58N 35°46' E 014°45'1 1.0
2017-Dec-25 07:25N 35°45' E 014°45'1 0.9
2017-Dec-25 06:52N 35°45' E 014°45'0 0.4
2017-Dec-25 06:19N 35°44' E 014°46'0 0.5
2017-Dec-25 05:52N 35°45' E 014°46'1 2.3
2017-Dec-25 05:30N 35°45' E 014°45'2 2.8
2017-Dec-25 04:58N 35°46' E 014°43'0 0.8
2017-Dec-25 04:30N 35°45' E 014°43'0 0.8
2017-Dec-25 04:01N 35°45' E 014°43'1 0.8
2017-Dec-25 03:19N 35°44' E 014°44'0 0.9
2017-Dec-25 02:58N 35°44' E 014°44'0 1.1
2017-Dec-25 02:30N 35°44' E 014°44'0 0.8
2017-Dec-25 01:58N 35°44' E 014°44'0 0.3
2017-Dec-25 01:22N 35°44' E 014°44'0 0.6
2017-Dec-25 01:00N 35°44' E 014°44'0 0.7
2017-Dec-25 00:28N 35°44' E 014°44'0 0.6
2017-Dec-24 23:52N 35°44' E 014°45'0 0.6
2017-Dec-24 23:30N 35°44' E 014°45'0 0.7
2017-Dec-24 22:52N 35°44' E 014°45'0 0.6
2017-Dec-24 22:12N 35°44' E 014°45'0 0.7
2017-Dec-24 22:00N 35°45' E 014°46'0 0.6
2017-Dec-24 21:24N 35°45' E 014°46'0 0.5
2017-Dec-24 20:36N 35°45' E 014°47'0 0.4
2017-Dec-24 20:18N 35°45' E 014°47'0 0.6
2017-Dec-24 20:01N 35°45' E 014°47'0 0.5
2017-Dec-24 19:30N 35°44' E 014°47'0 0.6
2017-Dec-24 18:58N 35°44' E 014°48'1 0.6
2017-Dec-24 17:57N 35°44' E 014°48'0 0.6
2017-Dec-24 17:27N 35°44' E 014°49'0 0.6
2017-Dec-24 17:00N 35°44' E 014°49'1 0.5
2017-Dec-24 15:43N 35°45' E 014°50'0 0.4
2017-Dec-24 15:27N 35°45' E 014°50'1 0.4
2017-Dec-24 13:30N 35°44' E 014°51'1 0.6
2017-Dec-24 12:20N 35°44' E 014°50'3 8.5
2017-Dec-24 12:00N 35°45' E 014°47'510.8
2017-Dec-24 11:30N 35°48' E 014°41'2 4.3
2017-Dec-24 10:58N 35°49' E 014°39'4 9.2
2017-Dec-24 10:30N 35°53' E 014°42'611.3
2017-Dec-24 10:00N 35°59' E 014°44'103 5.7
2017-Dec-23 15:57N 37°20' E 016°02'911.4
2017-Dec-23 15:07N 37°27' E 016°09'211.2
2017-Dec-23 14:57N 37°29' E 016°11'511.2
2017-Dec-23 14:30N 37°33' E 016°15'427 9.2
2017-Dec-21 15:59N 44°16' E 013°11'612.2
2017-Dec-21 15:30N 44°22' E 013°08'612.2
2017-Dec-21 15:00N 44°27' E 013°06'612.2
2017-Dec-21 14:30N 44°33' E 013°03'612.1
2017-Dec-21 14:00N 44°39' E 013°01'612.2
2017-Dec-21 13:30N 44°45' E 012°58'612.1
2017-Dec-21 13:00N 44°50' E 012°54'612.4
2017-Dec-21 12:30N 44°56' E 012°50'612.5
2017-Dec-21 12:00N 45°01' E 012°46'612.4
2017-Dec-21 11:30N 45°07' E 012°42'612.4
2017-Dec-21 11:00N 45°10' E 012°34'510.3
2017-Dec-21 10:30N 45°14' E 012°31'612.3
2017-Dec-21 10:00N 45°18' E 012°24'510.3
2017-Dec-21 09:30N 45°21' E 012°17'4 7.7
2017-Dec-21 09:00N 45°24' E 012°16'2 4.0
2017-Dec-21 08:30N 45°26' E 012°15'0 0.3
2017-Dec-21 08:00N 45°26' E 012°15'0 0.0
2017-Dec-21 07:30N 45°26' E 012°15'0 0.0
2017-Dec-21 07:00N 45°26' E 012°15'0 0.0
2017-Dec-21 06:30N 45°26' E 012°15'0 0.0
2017-Dec-21 06:00N 45°26' E 012°15'0 0.0
2017-Dec-21 05:30N 45°26' E 012°15'0 0.0
2017-Dec-21 05:00N 45°26' E 012°15'0 0.0
2017-Dec-21 04:30N 45°26' E 012°15'0 0.0
2017-Dec-21 04:00N 45°26' E 012°15'0 0.0
2017-Dec-21 03:30N 45°26' E 012°15'0 0.0
2017-Dec-21 02:57N 45°26' E 012°15'0 0.0
2017-Dec-21 02:30N 45°26' E 012°15'0 0.0
2017-Dec-21 02:00N 45°26' E 012°15'0 0.0
2017-Dec-21 01:30N 45°26' E 012°15'0 0.0
2017-Dec-21 01:00N 45°26' E 012°15'0 0.0
2017-Dec-21 00:30N 45°26' E 012°15'0 0.0
2017-Dec-21 00:00N 45°26' E 012°15'0 0.0
2017-Dec-20 23:30N 45°26' E 012°15'0 0.0
2017-Dec-20 23:00N 45°26' E 012°15'0 0.0
2017-Dec-20 22:30N 45°26' E 012°15'0 0.0
2017-Dec-20 22:00N 45°26' E 012°15'0 0.0
2017-Dec-20 21:30N 45°26' E 012°15'0 0.0
2017-Dec-20 21:00N 45°26' E 012°15'0 0.0
2017-Dec-20 20:30N 45°26' E 012°15'0 0.0
2017-Dec-20 20:00N 45°26' E 012°15'0 0.0
2017-Dec-20 19:30N 45°26' E 012°15'0 0.0
2017-Dec-20 19:00N 45°26' E 012°15'0 0.0
2017-Dec-20 18:30N 45°26' E 012°15'0 0.0
2017-Dec-20 18:01N 45°26' E 012°15'0 0.0
2017-Dec-20 17:27N 45°26' E 012°15'0 0.0
2017-Dec-20 17:00N 45°26' E 012°15'0 0.0
2017-Dec-20 16:30N 45°26' E 012°15'0 0.0
2017-Dec-20 16:00N 45°26' E 012°15'0 0.0
2017-Dec-20 15:30N 45°26' E 012°15'0 0.0
2017-Dec-20 15:00N 45°26' E 012°15'0 0.0
2017-Dec-20 14:30N 45°26' E 012°15'0 0.0
2017-Dec-20 14:00N 45°26' E 012°15'0 0.0
2017-Dec-20 13:30N 45°26' E 012°15'0 0.0
2017-Dec-20 13:00N 45°26' E 012°15'0 0.0
2017-Dec-20 12:30N 45°26' E 012°15'1 1.0
2017-Dec-20 12:00N 45°26' E 012°16'1 1.0
2017-Dec-20 11:30N 45°26' E 012°16'0 0.9
2017-Dec-20 11:00N 45°26' E 012°15'0 0.5
2017-Dec-20 10:30N 45°26' E 012°15'0 0.0
2017-Dec-20 10:00N 45°26' E 012°15'0 0.0
2017-Dec-20 09:30N 45°26' E 012°15'0 0.0
2017-Dec-20 09:00N 45°26' E 012°15'0 0.0
2017-Dec-20 08:30N 45°26' E 012°15'0 0.0
2017-Dec-20 08:00N 45°26' E 012°15'0 0.0
2017-Dec-20 07:30N 45°26' E 012°15'0 0.0
2017-Dec-20 07:00N 45°26' E 012°15'0 0.0
2017-Dec-20 06:30N 45°26' E 012°15'0 0.0
2017-Dec-20 06:00N 45°26' E 012°15'  

Dump ship's entire track history